createdAt,value
2022-12-17T00:01:29.092Z,0.58
2022-12-17T00:03:30.985Z,0.63
2022-12-17T00:05:32.968Z,0.65
2022-12-17T00:07:36.182Z,0.65
2022-12-17T00:09:37.972Z,0.54
2022-12-17T00:11:39.908Z,0.46
2022-12-17T00:13:41.831Z,0.47
2022-12-17T00:15:43.801Z,0.44
2022-12-17T00:17:47.082Z,0.44
2022-12-17T00:19:48.995Z,0.45
2022-12-17T00:21:51.090Z,0.43
2022-12-17T00:23:53.786Z,0.38
2022-12-17T00:25:58.490Z,0.34
2022-12-17T00:28:00.289Z,0.42
2022-12-17T00:30:02.037Z,0.39
2022-12-17T00:32:06.923Z,0.36
2022-12-17T00:34:10.111Z,0.34
2022-12-17T00:36:11.887Z,0.40
2022-12-17T00:38:15.694Z,0.44
2022-12-17T00:40:17.567Z,0.41
2022-12-17T00:42:22.467Z,0.35
2022-12-17T00:44:24.517Z,0.31
2022-12-17T00:46:26.331Z,0.22
2022-12-17T00:48:28.052Z,0.19
2022-12-17T00:50:31.676Z,0.17
2022-12-17T00:52:33.456Z,0.15
2022-12-17T00:54:35.172Z,0.13
2022-12-17T00:56:36.957Z,0.08
2022-12-17T00:58:38.882Z,0.12
2022-12-17T01:00:40.644Z,0.18
2022-12-17T01:02:42.632Z,0.13
2022-12-17T01:04:44.592Z,0.12
2022-12-17T01:06:47.943Z,0.08
2022-12-17T01:08:49.769Z,0.07
2022-12-17T01:10:51.695Z,0.00
2022-12-17T01:12:55.317Z,-0.16
2022-12-17T01:14:58.025Z,-0.06
2022-12-17T01:16:59.822Z,-0.04
2022-12-17T01:19:01.917Z,-0.02
2022-12-17T01:21:03.896Z,-0.08
2022-12-17T01:23:08.977Z,-0.05
2022-12-17T01:25:10.729Z,-0.17
2022-12-17T01:27:12.519Z,-0.15
2022-12-17T01:29:17.154Z,-0.09
2022-12-17T01:31:19.139Z,-0.12
2022-12-17T01:33:21.333Z,-0.18
2022-12-17T01:35:23.599Z,-0.16
2022-12-17T01:37:25.329Z,-0.13
2022-12-17T01:39:28.644Z,-0.12
2022-12-17T01:41:30.591Z,-0.16
2022-12-17T01:43:37.099Z,-0.09
2022-12-17T01:45:43.559Z,-0.04
2022-12-17T01:47:49.869Z,-0.11
2022-12-17T01:49:51.880Z,-0.08
2022-12-17T01:51:54.086Z,-0.08
2022-12-17T01:53:56.423Z,-0.09
2022-12-17T01:56:09.725Z,-0.10
2022-12-17T01:58:11.564Z,-0.11
2022-12-17T02:00:16.057Z,-0.14
2022-12-17T02:02:17.902Z,-0.25
2022-12-17T02:04:20.377Z,-0.28
2022-12-17T02:06:26.639Z,-0.36
2022-12-17T02:08:37.311Z,-0.31
2022-12-17T02:10:46.230Z,-0.33
2022-12-17T02:12:52.873Z,-0.30
2022-12-17T02:15:01.304Z,-0.26
2022-12-17T02:17:08.651Z,-0.27
2022-12-17T02:19:26.431Z,-0.24
2022-12-17T02:21:30.969Z,-0.25
2022-12-17T02:23:44.626Z,-0.30
2022-12-17T02:25:52.125Z,-0.30
2022-12-17T02:27:55.648Z,-0.40
2022-12-17T02:30:02.600Z,-0.45
2022-12-17T02:32:07.402Z,-0.49
2022-12-17T02:34:09.126Z,-0.52
2022-12-17T02:36:10.999Z,-0.57
2022-12-17T02:38:20.875Z,-0.54
2022-12-17T02:40:24.905Z,-0.53
2022-12-17T02:42:28.853Z,-0.56
2022-12-17T02:44:35.021Z,-0.56
2022-12-17T02:46:38.461Z,-0.61
2022-12-17T02:48:40.802Z,-0.59
2022-12-17T02:50:42.739Z,-0.62
2022-12-17T02:52:47.925Z,-0.68
2022-12-17T02:54:49.677Z,-0.69
2022-12-17T02:56:51.588Z,-0.73
2022-12-17T02:58:53.329Z,-0.76
2022-12-17T03:00:56.903Z,-0.76
2022-12-17T03:02:58.680Z,-0.79
2022-12-17T03:05:21.054Z,-0.79
2022-12-17T03:07:22.543Z,-0.86
2022-12-17T03:09:24.469Z,-0.82
2022-12-17T03:11:28.498Z,-0.77
2022-12-17T03:13:30.660Z,-0.74
2022-12-17T03:15:32.505Z,-0.65
2022-12-17T03:17:35.856Z,-0.59
2022-12-17T03:19:40.560Z,-0.58
2022-12-17T03:21:42.898Z,-0.66
2022-12-17T03:23:44.743Z,-0.69
2022-12-17T03:25:48.951Z,-0.71
2022-12-17T03:27:51.086Z,-0.80
2022-12-17T03:29:52.817Z,-0.87
2022-12-17T03:31:54.644Z,-0.94
2022-12-17T03:33:57.807Z,-0.91
2022-12-17T03:35:59.561Z,-1.01
2022-12-17T03:38:01.339Z,-0.99
2022-12-17T03:40:03.313Z,-0.90
2022-12-17T03:42:05.170Z,-1.06
2022-12-17T03:44:07.060Z,-1.17
2022-12-17T03:46:08.881Z,-1.12
2022-12-17T03:48:12.480Z,-1.06
2022-12-17T03:50:15.643Z,-1.01
2022-12-17T03:52:17.552Z,-1.03
2022-12-17T03:54:19.337Z,-1.19
2022-12-17T03:56:21.403Z,-1.18
2022-12-17T03:58:23.403Z,-1.19
2022-12-17T04:00:25.167Z,-1.22
2022-12-17T04:02:27.234Z,-1.20
2022-12-17T04:04:29.229Z,-1.15
2022-12-17T04:06:32.438Z,-1.09
2022-12-17T04:08:34.378Z,-1.12
2022-12-17T04:10:36.142Z,-1.13
2022-12-17T04:12:37.976Z,-1.12
2022-12-17T04:14:39.903Z,-1.07
2022-12-17T04:16:41.767Z,-1.07
2022-12-17T04:18:43.633Z,-1.07
2022-12-17T04:20:45.393Z,-1.11
2022-12-17T04:22:48.639Z,-1.11
2022-12-17T04:24:50.368Z,-1.17
2022-12-17T04:26:52.116Z,-1.14
2022-12-17T04:28:54.152Z,-1.19
2022-12-17T04:30:55.908Z,-1.17
2022-12-17T04:32:57.863Z,-1.27
2022-12-17T04:34:59.596Z,-1.26
2022-12-17T04:37:01.280Z,-1.28
2022-12-17T04:39:04.580Z,-1.28
2022-12-17T04:41:06.567Z,-1.29
2022-12-17T04:43:10.304Z,-1.28
2022-12-17T04:45:12.072Z,-1.34
2022-12-17T04:47:13.855Z,-1.37
2022-12-17T04:49:15.626Z,-1.39
2022-12-17T04:51:17.381Z,-1.43
2022-12-17T04:53:19.430Z,-1.44
2022-12-17T04:55:22.704Z,-1.43
2022-12-17T04:57:24.415Z,-1.42
2022-12-17T04:59:26.072Z,-1.43
2022-12-17T05:01:27.875Z,-1.46
2022-12-17T05:03:29.897Z,-1.42
2022-12-17T05:05:31.967Z,-1.46
2022-12-17T05:07:36.611Z,-1.48
2022-12-17T05:09:38.342Z,-1.48
2022-12-17T05:11:41.711Z,-1.51
2022-12-17T05:13:43.551Z,-1.53
2022-12-17T05:15:51.353Z,-1.67
2022-12-17T05:17:55.182Z,-1.70
2022-12-17T05:19:59.428Z,-1.66
2022-12-17T05:22:01.229Z,-1.61
2022-12-17T05:24:03.154Z,-1.64
2022-12-17T05:26:06.211Z,-1.61
2022-12-17T05:28:11.990Z,-1.74
2022-12-17T05:30:14.047Z,-1.69
2022-12-17T05:32:15.749Z,-1.70
2022-12-17T05:34:17.631Z,-1.67
2022-12-17T05:36:20.916Z,-1.64
2022-12-17T05:38:22.696Z,-1.63
2022-12-17T05:40:24.475Z,-1.57
2022-12-17T05:42:26.207Z,-1.52
2022-12-17T05:44:29.345Z,-1.49
2022-12-17T05:46:31.157Z,-1.52
2022-12-17T05:48:33.883Z,-1.55
2022-12-17T05:50:35.706Z,-1.48
2022-12-17T05:52:37.389Z,-1.49
2022-12-17T05:54:39.187Z,-1.55
2022-12-17T05:56:40.870Z,-1.57
2022-12-17T05:58:42.588Z,-1.63
2022-12-17T06:00:45.735Z,-1.65
2022-12-17T06:02:47.518Z,-1.67
2022-12-17T06:04:49.692Z,-1.68
2022-12-17T06:06:51.326Z,-1.69
2022-12-17T06:08:54.291Z,-1.71
2022-12-17T06:10:59.081Z,-1.74
2022-12-17T06:13:00.808Z,-1.79
2022-12-17T06:15:02.803Z,-1.75
2022-12-17T06:17:06.232Z,-1.83
2022-12-17T06:19:07.985Z,-1.83
2022-12-17T06:21:09.691Z,-1.81
2022-12-17T06:23:11.343Z,-1.83
2022-12-17T06:25:13.070Z,-1.90
2022-12-17T06:27:15.240Z,-1.88
2022-12-17T06:29:17.005Z,-1.85
2022-12-17T06:31:18.815Z,-1.86
2022-12-17T06:33:22.876Z,-1.88
2022-12-17T06:35:24.627Z,-1.90
2022-12-17T06:37:26.809Z,-1.92
2022-12-17T06:39:29.440Z,-1.87
2022-12-17T06:41:31.095Z,-1.92
2022-12-17T06:43:33.613Z,-1.94
2022-12-17T06:45:35.744Z,-1.99
2022-12-17T06:47:37.343Z,-1.97
2022-12-17T06:49:41.074Z,-2.03
2022-12-17T06:51:42.789Z,-2.07
2022-12-17T06:53:44.522Z,-2.08
2022-12-17T06:55:46.582Z,-2.15
2022-12-17T06:57:50.454Z,-2.10
2022-12-17T06:59:52.454Z,-2.10
2022-12-17T07:01:55.001Z,-2.02
2022-12-17T07:03:56.744Z,-2.09
2022-12-17T07:06:01.570Z,-2.10
2022-12-17T07:08:03.646Z,-2.04
2022-12-17T07:10:13.628Z,-2.04
2022-12-17T07:12:16.158Z,-1.99
2022-12-17T07:14:18.209Z,-1.99
2022-12-17T07:16:19.989Z,-2.07
2022-12-17T07:18:22.061Z,-2.10
2022-12-17T07:20:23.981Z,-2.14
2022-12-17T07:22:27.501Z,-2.26
2022-12-17T07:24:31.584Z,-2.37
2022-12-17T07:26:33.574Z,-2.38
2022-12-17T07:28:35.463Z,-2.40
2022-12-17T07:30:37.212Z,-2.31
2022-12-17T07:32:38.966Z,-2.18
2022-12-17T07:34:40.671Z,-2.13
2022-12-17T07:36:42.568Z,-2.06
2022-12-17T07:38:46.117Z,-1.93
2022-12-17T07:40:47.745Z,-1.93
2022-12-17T07:42:49.753Z,-1.87
2022-12-17T07:44:51.501Z,-1.80
2022-12-17T07:46:55.527Z,-1.79
2022-12-17T07:48:57.359Z,-1.90
2022-12-17T07:51:01.699Z,-2.11
2022-12-17T07:53:06.400Z,-2.29
2022-12-17T07:55:15.392Z,-2.39
2022-12-17T07:57:19.900Z,-2.27
2022-12-17T07:59:21.904Z,-2.15
2022-12-17T08:01:23.771Z,-2.25
2022-12-17T08:03:27.580Z,-2.20
2022-12-17T08:05:29.436Z,-2.20
2022-12-17T08:07:31.277Z,-2.46
2022-12-17T08:09:33.095Z,-2.37
2022-12-17T08:11:38.901Z,-2.36
2022-12-17T08:13:40.869Z,-2.35
2022-12-17T08:15:58.883Z,-2.23
2022-12-17T08:18:02.235Z,-2.18
2022-12-17T08:20:05.557Z,-2.14
2022-12-17T08:22:07.532Z,-2.18
2022-12-17T08:24:09.473Z,-2.07
2022-12-17T08:26:11.270Z,-1.96
2022-12-17T08:28:41.291Z,-1.82
2022-12-17T08:30:36.687Z,-1.67
2022-12-17T08:32:38.938Z,-1.56
2022-12-17T08:34:40.644Z,-1.46
2022-12-17T08:36:42.468Z,-1.40
2022-12-17T08:38:45.570Z,-1.29
2022-12-17T08:40:47.435Z,-1.26
2022-12-17T08:42:55.782Z,-1.19
2022-12-17T08:44:59.281Z,-1.12
2022-12-17T08:47:03.462Z,-1.04
2022-12-17T08:49:05.397Z,-1.04
2022-12-17T08:51:07.201Z,-0.94
2022-12-17T08:53:09.031Z,-0.93
2022-12-17T08:55:10.751Z,-0.88
2022-12-17T08:57:12.550Z,-0.93
2022-12-17T08:59:14.321Z,-0.89
2022-12-17T09:01:18.049Z,-0.80
2022-12-17T09:03:20.082Z,-0.78
2022-12-17T09:05:21.983Z,-0.75
2022-12-17T09:07:34.747Z,-0.75
2022-12-17T09:09:36.404Z,-0.77
2022-12-17T09:11:38.158Z,-0.85
2022-12-17T09:13:40.073Z,-0.94
2022-12-17T09:15:41.822Z,-0.91
2022-12-17T09:17:45.097Z,-0.83
2022-12-17T09:19:46.871Z,-0.80
2022-12-17T09:21:48.584Z,-0.79
2022-12-17T09:23:50.290Z,-0.69
2022-12-17T09:25:58.212Z,-0.67
2022-12-17T09:28:03.360Z,-0.60
2022-12-17T09:30:06.271Z,-0.60
2022-12-17T09:32:08.200Z,-0.63
2022-12-17T09:34:11.853Z,-0.60
2022-12-17T09:36:15.314Z,-0.59
2022-12-17T09:38:17.100Z,-0.58
2022-12-17T09:40:22.947Z,-0.62
2022-12-17T09:42:30.388Z,-0.55
2022-12-17T09:44:41.178Z,-0.50
2022-12-17T09:46:51.048Z,-0.45
2022-12-17T09:49:00.745Z,-0.36
2022-12-17T09:51:04.661Z,-0.39
2022-12-17T09:53:20.490Z,-0.35
2022-12-17T09:55:27.274Z,-0.32
2022-12-17T09:57:33.644Z,-0.32
2022-12-17T09:59:43.677Z,-0.29
2022-12-17T10:01:45.770Z,-0.29
2022-12-17T10:03:49.469Z,-0.26
2022-12-17T10:05:51.290Z,-0.23
2022-12-17T10:07:55.143Z,-0.21
2022-12-17T10:10:02.116Z,-0.21
2022-12-17T10:12:13.481Z,-0.22
2022-12-17T10:14:18.166Z,-0.22
2022-12-17T10:16:27.489Z,-0.21
2022-12-17T10:18:31.726Z,-0.18
2022-12-17T10:20:38.459Z,-0.19
2022-12-17T10:22:44.537Z,-0.16
2022-12-17T10:24:49.931Z,-0.12
2022-12-17T10:26:51.713Z,-0.16
2022-12-17T10:29:02.783Z,-0.12
2022-12-17T10:31:09.575Z,-0.11
2022-12-17T10:33:18.405Z,-0.05
2022-12-17T10:35:21.685Z,-0.18
2022-12-17T10:37:27.707Z,-0.16
2022-12-17T10:39:30.988Z,-0.10
2022-12-17T10:41:37.491Z,-0.11
2022-12-17T10:43:40.606Z,-0.07
2022-12-17T10:45:54.839Z,-0.02
2022-12-17T10:47:57.107Z,0.02
2022-12-17T10:50:00.609Z,-0.05
2022-12-17T10:52:05.892Z,-0.16
2022-12-17T10:54:19.938Z,-0.21
2022-12-17T10:56:29.183Z,-0.19
2022-12-17T10:58:33.238Z,-0.28
2022-12-17T11:00:37.766Z,-0.21
2022-12-17T11:02:39.808Z,-0.12
2022-12-17T11:04:51.393Z,-0.07
2022-12-17T11:06:56.148Z,-0.09
2022-12-17T11:09:02.327Z,-0.22
2022-12-17T11:11:12.688Z,-0.20
2022-12-17T11:13:30.265Z,-0.13
2022-12-17T11:15:38.269Z,-0.09
2022-12-17T11:17:42.173Z,-0.02
2022-12-17T11:19:49.275Z,0.03
2022-12-17T11:21:54.430Z,-0.06
2022-12-17T11:23:59.499Z,-0.01
2022-12-17T11:26:06.163Z,0.08
2022-12-17T11:28:17.789Z,0.10
2022-12-17T11:30:19.752Z,0.10
2022-12-17T11:32:55.305Z,0.10
2022-12-17T11:35:07.603Z,0.20
2022-12-17T11:37:17.684Z,0.26
2022-12-17T11:39:39.798Z,0.26
2022-12-17T11:41:54.685Z,0.24
2022-12-17T11:44:04.070Z,0.28
2022-12-17T11:46:18.074Z,0.33
2022-12-17T11:48:29.079Z,0.35
2022-12-17T11:50:41.008Z,0.40
2022-12-17T11:52:50.289Z,0.41
2022-12-17T11:54:59.311Z,0.40
2022-12-17T11:57:08.360Z,0.39
2022-12-17T11:59:23.426Z,0.32
2022-12-17T12:01:33.324Z,0.28
2022-12-17T12:03:48.756Z,0.38
2022-12-17T12:05:58.959Z,0.37
2022-12-17T12:08:10.839Z,0.27
2022-12-17T12:10:20.100Z,0.07
2022-12-17T12:12:34.720Z,0.04
2022-12-17T12:14:48.264Z,0.07
2022-12-17T12:16:56.112Z,0.08
2022-12-17T12:19:11.288Z,0.13
2022-12-17T12:21:25.573Z,0.19
2022-12-17T12:23:38.815Z,0.27
2022-12-17T12:25:52.586Z,0.32
2022-12-17T12:28:06.472Z,0.12
2022-12-17T12:30:15.492Z,0.17
2022-12-17T12:32:26.676Z,0.23
2022-12-17T12:34:33.781Z,0.28
2022-12-17T12:36:38.314Z,0.29
2022-12-17T12:38:46.652Z,0.36
2022-12-17T12:41:03.159Z,-0.19
2022-12-17T12:43:21.492Z,-0.17
2022-12-17T12:45:37.577Z,-0.35
2022-12-17T12:47:48.138Z,-0.62
2022-12-17T12:49:59.030Z,-0.91
2022-12-17T12:52:01.235Z,-0.74
2022-12-17T12:54:22.768Z,-0.51
2022-12-17T12:56:56.033Z,-0.32
2022-12-17T12:58:58.139Z,-0.16
2022-12-17T13:01:02.262Z,-0.14
2022-12-17T13:03:21.448Z,0.03
2022-12-17T13:05:32.645Z,0.11
2022-12-17T13:07:34.382Z,0.21
2022-12-17T13:09:48.407Z,0.28
2022-12-17T13:11:55.602Z,0.35
2022-12-17T13:14:06.457Z,0.39
2022-12-17T13:16:33.191Z,0.32
2022-12-17T13:18:37.887Z,0.30
2022-12-17T13:20:41.927Z,0.35
2022-12-17T13:22:50.484Z,0.29
2022-12-17T13:25:09.340Z,-0.28
2022-12-17T13:27:27.900Z,-0.51
2022-12-17T13:29:34.717Z,-0.42
2022-12-17T13:31:48.405Z,-0.38
2022-12-17T13:33:58.983Z,-0.63
2022-12-17T13:36:13.432Z,-0.63
2022-12-17T13:38:23.515Z,-0.51
2022-12-17T13:40:37.497Z,-0.78
2022-12-17T13:42:39.924Z,-0.71
2022-12-17T13:44:46.468Z,-0.52
2022-12-17T13:46:54.769Z,-0.37
2022-12-17T13:48:58.725Z,-0.24
2022-12-17T13:51:05.732Z,-0.18
2022-12-17T13:53:11.521Z,-0.06
2022-12-17T13:55:21.736Z,-0.28
2022-12-17T13:57:26.198Z,-0.24
2022-12-17T13:59:30.908Z,-0.10
2022-12-17T14:01:33.154Z,0.03
2022-12-17T14:04:05.815Z,0.10
2022-12-17T14:05:59.903Z,0.10
2022-12-17T14:08:05.130Z,0.19
2022-12-17T14:10:15.160Z,0.19
2022-12-17T14:12:19.552Z,-0.10
2022-12-17T14:14:31.973Z,-0.18
2022-12-17T14:16:33.817Z,-0.27
2022-12-17T14:18:40.013Z,-0.16
2022-12-17T14:20:42.284Z,-0.13
2022-12-17T14:22:51.282Z,-0.21
2022-12-17T14:24:55.080Z,-0.54
2022-12-17T14:26:59.199Z,-0.71
2022-12-17T14:29:00.959Z,-0.69
2022-12-17T14:33:31.171Z,-0.68
2022-12-17T14:35:36.298Z,-0.79
2022-12-17T14:37:38.020Z,-0.72
2022-12-17T14:39:45.512Z,-0.91
2022-12-17T14:41:49.418Z,-1.20
2022-12-17T14:43:56.457Z,-1.02
2022-12-17T14:46:01.427Z,-1.09
2022-12-17T14:48:03.687Z,-1.12
2022-12-17T14:50:07.971Z,-1.01
2022-12-17T14:52:15.340Z,-0.77
2022-12-17T14:54:21.635Z,-0.60
2022-12-17T14:56:24.024Z,-0.53
2022-12-17T14:58:27.991Z,-0.40
2022-12-17T15:00:29.901Z,-0.56
2022-12-17T15:02:32.217Z,-0.73
2022-12-17T15:04:36.831Z,-1.16
2022-12-17T15:06:38.537Z,-1.23
2022-12-17T15:08:42.335Z,-0.98
2022-12-17T15:10:44.278Z,-0.85
2022-12-17T15:12:46.097Z,-0.85
2022-12-17T15:14:49.520Z,-0.74
2022-12-17T15:16:51.348Z,-0.63
2022-12-17T15:18:53.192Z,-0.59
2022-12-17T15:20:55.211Z,-0.62
2022-12-17T15:22:56.958Z,-0.57
2022-12-17T15:24:58.785Z,-0.55
2022-12-17T15:27:00.574Z,-0.54
2022-12-17T15:29:02.314Z,-0.58
2022-12-17T15:31:09.544Z,-0.60
2022-12-17T15:33:11.659Z,-0.56
2022-12-17T15:35:14.440Z,-0.52
2022-12-17T15:37:21.071Z,-0.56
2022-12-17T15:39:25.830Z,-0.53
2022-12-17T15:41:27.682Z,-0.54
2022-12-17T15:43:34.513Z,-0.53
2022-12-17T15:45:37.065Z,-0.71
2022-12-17T15:47:40.560Z,-0.67
2022-12-17T15:49:42.508Z,-0.57
2022-12-17T15:51:44.497Z,-0.81
2022-12-17T15:53:46.323Z,-0.71
2022-12-17T15:55:48.177Z,-0.85
2022-12-17T15:57:50.049Z,-0.78
2022-12-17T15:59:52.178Z,-0.79
2022-12-17T16:01:54.022Z,-0.95
2022-12-17T16:03:58.108Z,-1.28
2022-12-17T16:06:01.643Z,-1.28
2022-12-17T16:08:03.439Z,-1.14
2022-12-17T16:10:06.392Z,-1.15
2022-12-17T16:12:08.199Z,-1.23
2022-12-17T16:14:10.477Z,-1.46
2022-12-17T16:16:12.282Z,-1.27
2022-12-17T16:18:14.091Z,-1.09
2022-12-17T16:20:17.391Z,-0.97
2022-12-17T16:22:19.166Z,-0.94
2022-12-17T16:24:21.029Z,-1.10
2022-12-17T16:26:22.990Z,-1.09
2022-12-17T16:28:25.019Z,-0.94
2022-12-17T16:30:27.121Z,-1.02
2022-12-17T16:32:34.565Z,-1.35
2022-12-17T16:34:38.060Z,-1.33
2022-12-17T16:36:42.083Z,-1.25
2022-12-17T16:38:45.143Z,-1.44
2022-12-17T16:40:47.207Z,-1.56
2022-12-17T16:42:50.342Z,-1.56
2022-12-17T16:44:52.043Z,-1.44
2022-12-17T16:46:53.919Z,-1.30
2022-12-17T16:48:57.881Z,-1.13
2022-12-17T16:50:59.790Z,-1.01
2022-12-17T16:53:03.697Z,-0.92
2022-12-17T16:55:06.213Z,-1.29
2022-12-17T16:57:08.273Z,-1.57
2022-12-17T16:59:12.349Z,-1.57
2022-12-17T17:01:18.557Z,-1.45
2022-12-17T17:03:20.727Z,-1.59
2022-12-17T17:05:22.769Z,-1.41
2022-12-17T17:07:24.555Z,-1.20
2022-12-17T17:09:29.687Z,-1.07
2022-12-17T17:11:31.447Z,-1.25
2022-12-17T17:13:33.679Z,-1.38
2022-12-17T17:15:35.431Z,-1.32
2022-12-17T17:17:53.778Z,-1.42
2022-12-17T17:19:57.973Z,-1.56
2022-12-17T17:22:00.088Z,-1.69
2022-12-17T17:24:03.447Z,-1.98
2022-12-17T17:26:07.700Z,-2.01
2022-12-17T17:28:12.334Z,-1.71
2022-12-17T17:30:14.578Z,-1.50
2022-12-17T17:32:16.408Z,-1.40
2022-12-17T17:34:18.300Z,-1.23
2022-12-17T17:36:22.877Z,-1.11
2022-12-17T17:38:24.747Z,-0.97
2022-12-17T17:40:26.486Z,-0.85
2022-12-17T17:42:29.860Z,-0.76
2022-12-17T17:44:31.944Z,-0.77
2022-12-17T17:46:35.278Z,-0.76
2022-12-17T17:48:38.197Z,-1.01
2022-12-17T17:50:40.575Z,-1.32
2022-12-17T17:52:42.437Z,-1.26
2022-12-17T17:54:44.251Z,-1.10
2022-12-17T17:56:46.283Z,-1.02
2022-12-17T17:58:52.165Z,-0.89
2022-12-17T18:00:54.034Z,-0.85
2022-12-17T18:02:56.264Z,-0.79
2022-12-17T18:05:01.410Z,-0.72
2022-12-17T18:09:25.444Z,-0.60
2022-12-17T18:11:29.935Z,-0.56
2022-12-17T18:13:33.531Z,-0.49
2022-12-17T18:15:36.856Z,-0.50
2022-12-17T18:17:38.913Z,-0.48
2022-12-17T18:19:40.747Z,-0.47
2022-12-17T18:21:44.600Z,-0.49
2022-12-17T18:23:47.557Z,-0.47
2022-12-17T18:25:49.353Z,-0.44
2022-12-17T18:27:52.371Z,-0.43
2022-12-17T18:29:54.428Z,-0.40
2022-12-17T18:32:02.546Z,-0.42
2022-12-17T18:34:05.452Z,-0.45
2022-12-17T18:36:12.356Z,-0.36
2022-12-17T18:38:14.002Z,-0.47
2022-12-17T18:40:15.812Z,-0.47
2022-12-17T18:42:17.573Z,-0.62
2022-12-17T18:44:20.683Z,-1.05
2022-12-17T18:46:23.567Z,-1.22
2022-12-17T18:48:26.949Z,-1.58
2022-12-17T18:50:28.819Z,-1.92
2022-12-17T18:52:30.675Z,-1.94
2022-12-17T18:54:32.799Z,-1.79
2022-12-17T18:57:00.072Z,-1.52
2022-12-17T18:58:57.924Z,-1.36
2022-12-17T19:01:00.098Z,-1.20
2022-12-17T19:03:02.319Z,-1.09
2022-12-17T19:05:06.318Z,-0.98
2022-12-17T19:07:08.089Z,-0.93
2022-12-17T19:09:17.345Z,-0.94
2022-12-17T19:11:20.663Z,-1.16
2022-12-17T19:13:23.497Z,-1.15
2022-12-17T19:15:28.309Z,-1.10
2022-12-17T19:17:30.401Z,-0.98
2022-12-17T19:19:35.123Z,-0.87
2022-12-17T19:21:38.582Z,-0.81
2022-12-17T19:23:40.819Z,-0.75
2022-12-17T19:25:42.590Z,-0.76
2022-12-17T19:27:44.455Z,-0.76
2022-12-17T19:29:49.370Z,-0.68
2022-12-17T19:31:52.111Z,-0.65
2022-12-17T19:33:55.146Z,-0.58
2022-12-17T19:36:01.836Z,-0.63
2022-12-17T19:38:05.286Z,-0.57
2022-12-17T19:40:08.371Z,-0.52
2022-12-17T19:42:10.432Z,-0.43
2022-12-17T19:44:14.119Z,-0.42
2022-12-17T19:46:18.487Z,-0.47
2022-12-17T19:48:20.355Z,-0.50
2022-12-17T19:50:22.154Z,-0.55
2022-12-17T19:52:26.563Z,-0.52
2022-12-17T19:54:29.899Z,-0.70
2022-12-17T19:56:33.295Z,-0.71
2022-12-17T19:58:35.671Z,-0.66
2022-12-17T20:00:37.641Z,-0.64
2022-12-17T20:02:40.479Z,-0.63
2022-12-17T20:04:42.281Z,-0.61
2022-12-17T20:06:45.559Z,-0.52
2022-12-17T20:08:48.593Z,-0.53
2022-12-17T20:10:51.818Z,-0.56
2022-12-17T20:12:53.679Z,-0.84
2022-12-17T20:14:55.352Z,-0.84
2022-12-17T20:16:59.088Z,-0.89
2022-12-17T20:19:02.430Z,-1.11
2022-12-17T20:21:06.258Z,-1.01
2022-12-17T20:23:08.025Z,-0.97
2022-12-17T20:25:10.129Z,-1.13
2022-12-17T20:27:13.294Z,-1.05
2022-12-17T20:29:18.013Z,-0.98
2022-12-17T20:31:20.259Z,-0.88
2022-12-17T20:33:22.148Z,-0.87
2022-12-17T20:35:24.016Z,-0.76
2022-12-17T20:37:25.822Z,-0.72
2022-12-17T20:39:28.420Z,-0.84
2022-12-17T20:41:31.255Z,-0.80
2022-12-17T20:43:34.776Z,-0.75
2022-12-17T20:45:37.078Z,-0.74
2022-12-17T20:47:38.851Z,-0.67
2022-12-17T20:49:40.693Z,-0.65
2022-12-17T20:51:42.636Z,-0.58
2022-12-17T20:53:44.929Z,-0.51
2022-12-17T20:55:47.025Z,-0.51
2022-12-17T20:57:48.744Z,-0.44
2022-12-17T20:59:55.435Z,-0.53
2022-12-17T21:01:57.327Z,-0.83
2022-12-17T21:03:59.881Z,-0.79
2022-12-17T21:06:10.168Z,-0.69
2022-12-17T21:08:12.098Z,-0.58
2022-12-17T21:10:13.905Z,-0.57
2022-12-17T21:12:15.797Z,-0.59
2022-12-17T21:14:19.342Z,-0.57
2022-12-17T21:16:25.895Z,-0.54
2022-12-17T21:18:29.483Z,-0.49
2022-12-17T21:20:31.518Z,-0.43
2022-12-17T21:22:33.634Z,-0.40
2022-12-17T21:24:35.506Z,-0.37
2022-12-17T21:26:39.290Z,-0.37
2022-12-17T21:28:43.271Z,-0.44
2022-12-17T21:30:45.711Z,-0.47
2022-12-17T21:32:49.260Z,-0.38
2022-12-17T21:34:51.409Z,-0.37
2022-12-17T21:36:54.749Z,-0.37
2022-12-17T21:38:57.868Z,-0.30
2022-12-17T21:41:05.257Z,-0.25
2022-12-17T21:43:07.505Z,-0.25
2022-12-17T21:45:09.978Z,-0.34
2022-12-17T21:47:11.987Z,-0.43
2022-12-17T21:49:15.595Z,-0.41
2022-12-17T21:51:18.086Z,-0.44
2022-12-17T21:53:20.848Z,-0.38
2022-12-17T21:55:22.802Z,-0.36
2022-12-17T21:57:25.273Z,-0.34
2022-12-17T21:59:27.297Z,-0.31
2022-12-17T22:01:33.518Z,-0.31
2022-12-17T22:03:35.476Z,-0.26
2022-12-17T22:05:41.696Z,-0.24
2022-12-17T22:07:46.419Z,-0.24
2022-12-17T22:10:10.695Z,-0.28
2022-12-17T22:12:11.606Z,-0.29
2022-12-17T22:14:20.683Z,-0.31
2022-12-17T22:16:23.332Z,-0.26
2022-12-17T22:18:25.177Z,-0.25
2022-12-17T22:20:27.134Z,-0.25
2022-12-17T22:22:30.653Z,-0.29
2022-12-17T22:24:36.252Z,-0.25
2022-12-17T22:26:38.792Z,-0.23
2022-12-17T22:28:40.977Z,-0.27
2022-12-17T22:30:43.028Z,-0.65
2022-12-17T22:32:45.421Z,-0.64
2022-12-17T22:35:24.299Z,-1.10
2022-12-17T22:40:25.809Z,-1.10
2022-12-17T22:43:58.299Z,-0.94
2022-12-17T22:44:45.731Z,-0.78
2022-12-17T22:44:46.138Z,-0.82
2022-12-17T22:46:39.493Z,-0.66
2022-12-17T22:48:41.353Z,-0.55
2022-12-17T22:50:47.146Z,-0.48
2022-12-17T22:53:05.695Z,-0.49
2022-12-17T22:55:14.788Z,-0.47
2022-12-17T22:57:36.775Z,-0.41
2022-12-17T22:59:38.995Z,-0.42
2022-12-17T23:01:41.994Z,-0.39
2022-12-17T23:03:44.691Z,-0.33
2022-12-17T23:05:46.750Z,-0.29
2022-12-17T23:07:51.136Z,-0.23
2022-12-17T23:09:52.952Z,-0.23
2022-12-17T23:11:59.292Z,-0.19
2022-12-17T23:14:07.687Z,-0.28
2022-12-17T23:16:11.317Z,-0.40
2022-12-17T23:18:13.166Z,-0.42
2022-12-17T23:20:16.087Z,-0.39
2022-12-17T23:22:22.232Z,-0.63
2022-12-17T23:24:24.353Z,-0.95
2022-12-17T23:26:28.357Z,-1.00
2022-12-17T23:28:32.070Z,-0.90
2022-12-17T23:30:35.958Z,-0.87
2022-12-17T23:32:38.195Z,-0.76
2022-12-17T23:34:40.195Z,-0.69
2022-12-17T23:36:42.385Z,-0.63
2022-12-17T23:38:44.914Z,-0.61
2022-12-17T23:40:46.723Z,-0.75
2022-12-17T23:42:48.565Z,-1.19
2022-12-17T23:44:52.100Z,-1.25
2022-12-17T23:46:53.848Z,-1.17
2022-12-17T23:48:56.327Z,-1.15
2022-12-17T23:50:59.018Z,-1.12
2022-12-17T23:53:00.984Z,-1.45
2022-12-17T23:55:04.275Z,-1.60
2022-12-17T23:57:06.303Z,-1.42
2022-12-17T23:59:09.508Z,-1.29
